createdAt,value
2022-10-04T00:00:33.857Z,2.40
2022-10-04T00:03:18.256Z,1.80
2022-10-04T00:05:51.103Z,1.87
2022-10-04T00:08:31.676Z,1.90
2022-10-04T00:11:15.272Z,1.90
2022-10-04T00:13:54.271Z,2.43
2022-10-04T00:16:26.623Z,1.27
2022-10-04T00:19:40.018Z,1.20
2022-10-04T00:22:12.601Z,1.13
2022-10-04T00:25:08.555Z,1.30
2022-10-04T00:27:37.372Z,1.80
2022-10-04T00:30:04.421Z,1.27
2022-10-04T00:32:41.029Z,2.37
2022-10-04T00:35:26.040Z,2.13
2022-10-04T00:38:00.344Z,1.77
2022-10-04T00:40:35.496Z,1.73
2022-10-04T00:43:12.757Z,1.70
2022-10-04T00:46:02.179Z,1.80
2022-10-04T00:48:56.902Z,1.77
2022-10-04T00:51:38.191Z,1.93
2022-10-04T00:54:20.058Z,2.07
2022-10-04T00:56:53.702Z,2.67
2022-10-04T00:59:40.962Z,2.10
2022-10-04T01:02:18.574Z,2.47
2022-10-04T01:05:08.069Z,1.60
2022-10-04T01:08:06.392Z,1.40
2022-10-04T01:10:47.874Z,1.70
2022-10-04T01:13:25.342Z,2.00
2022-10-04T01:16:00.752Z,1.80
2022-10-04T01:18:31.133Z,2.03
2022-10-04T01:21:05.150Z,1.77
2022-10-04T01:23:57.908Z,1.40
2022-10-04T01:26:32.460Z,1.50
2022-10-04T01:29:03.021Z,1.20
2022-10-04T01:31:32.435Z,1.97
2022-10-04T01:34:01.161Z,1.27
2022-10-04T01:36:29.034Z,1.30
2022-10-04T01:38:56.360Z,1.57
2022-10-04T01:41:30.831Z,2.00
2022-10-04T01:44:01.533Z,1.50
2022-10-04T01:46:34.323Z,1.57
2022-10-04T01:49:06.359Z,1.40
2022-10-04T01:51:43.840Z,1.40
2022-10-04T01:54:15.988Z,1.37
2022-10-04T01:56:57.695Z,1.30
2022-10-04T01:59:40.570Z,1.13
2022-10-04T02:02:17.722Z,1.33
2022-10-04T02:04:52.522Z,1.80
2022-10-04T02:07:19.998Z,1.33
2022-10-04T02:09:49.351Z,1.50
2022-10-04T02:12:18.855Z,1.37
2022-10-04T02:14:52.793Z,1.60
2022-10-04T02:17:24.440Z,1.30
2022-10-04T02:19:52.686Z,1.70
2022-10-04T02:22:20.345Z,1.37
2022-10-04T02:24:49.856Z,1.83
2022-10-04T02:27:17.448Z,1.27
2022-10-04T02:29:44.641Z,1.40
2022-10-04T02:32:32.067Z,1.83
2022-10-04T02:34:59.555Z,1.40
2022-10-04T02:37:28.760Z,2.00
2022-10-04T02:40:07.419Z,1.33
2022-10-04T02:42:40.241Z,1.60
2022-10-04T02:45:22.829Z,1.67
2022-10-04T02:48:05.847Z,1.07
2022-10-04T02:50:50.306Z,1.70
2022-10-04T02:53:43.449Z,1.37
2022-10-04T02:56:12.321Z,1.57
2022-10-04T02:58:41.120Z,1.30
2022-10-04T03:01:15.777Z,2.50
2022-10-04T03:03:46.285Z,1.67
2022-10-04T03:06:19.944Z,1.80
2022-10-04T03:08:53.045Z,1.77
2022-10-04T03:11:24.384Z,1.60
2022-10-04T03:13:55.127Z,1.90
2022-10-04T03:16:22.478Z,1.20
2022-10-04T03:18:51.699Z,1.50
2022-10-04T03:21:20.362Z,1.47
2022-10-04T03:23:50.930Z,1.33
2022-10-04T03:26:42.228Z,1.60
2022-10-04T03:29:12.447Z,1.70
2022-10-04T03:31:44.039Z,1.80
2022-10-04T03:34:23.267Z,1.80
2022-10-04T03:36:52.397Z,1.50
2022-10-04T03:39:26.051Z,2.03
2022-10-04T03:41:53.729Z,1.50
2022-10-04T03:44:21.762Z,1.80
2022-10-04T03:46:49.258Z,1.50
2022-10-04T03:49:23.641Z,1.73
2022-10-04T03:51:51.168Z,2.23
2022-10-04T03:54:23.706Z,4.53
2022-10-04T03:56:54.391Z,1.67
2022-10-04T03:59:25.010Z,2.47
2022-10-04T04:02:04.678Z,2.00
2022-10-04T04:04:31.843Z,2.10
2022-10-04T04:07:03.763Z,2.03
2022-10-04T04:09:51.152Z,1.83
2022-10-04T04:12:35.082Z,1.70
2022-10-04T04:15:03.018Z,1.30
2022-10-04T04:17:39.341Z,2.17
2022-10-04T04:20:15.731Z,1.37
2022-10-04T04:22:46.663Z,1.97
2022-10-04T04:25:17.139Z,1.53
2022-10-04T04:27:46.826Z,1.30
2022-10-04T04:30:18.200Z,1.70
2022-10-04T04:32:57.704Z,1.63
2022-10-04T04:35:32.072Z,1.30
2022-10-04T04:38:25.874Z,1.53
2022-10-04T04:40:57.453Z,1.80
2022-10-04T04:43:28.364Z,1.40
2022-10-04T04:46:25.686Z,2.10
2022-10-04T04:48:50.691Z,1.97
2022-10-04T04:51:25.310Z,1.63
2022-10-04T04:53:54.213Z,1.77
2022-10-04T04:56:25.772Z,1.57
2022-10-04T04:58:55.389Z,2.13
2022-10-04T05:01:33.213Z,2.33
2022-10-04T05:04:12.558Z,1.80
2022-10-04T05:06:47.820Z,1.47
2022-10-04T05:09:30.513Z,1.97
2022-10-04T05:12:20.988Z,1.97
2022-10-04T05:14:52.317Z,1.57
2022-10-04T05:17:24.410Z,2.13
2022-10-04T05:19:55.917Z,1.63
2022-10-04T05:22:25.491Z,1.37
2022-10-04T05:25:17.206Z,1.40
2022-10-04T05:27:45.555Z,2.07
2022-10-04T05:30:40.238Z,1.80
2022-10-04T05:33:14.593Z,1.50
2022-10-04T05:36:01.746Z,1.57
2022-10-04T05:38:38.032Z,1.60
2022-10-04T05:41:09.711Z,1.33
2022-10-04T05:43:44.413Z,2.00
2022-10-04T05:46:23.768Z,1.43
2022-10-04T05:49:19.339Z,1.50
2022-10-04T05:51:56.019Z,1.30
2022-10-04T05:54:26.491Z,1.70
2022-10-04T05:57:15.898Z,1.80
2022-10-04T06:00:12.883Z,2.10
2022-10-04T06:03:04.081Z,1.70
2022-10-04T06:05:31.115Z,2.00
2022-10-04T06:08:16.938Z,1.80
2022-10-04T06:11:38.993Z,1.97
2022-10-04T06:14:36.373Z,2.43
2022-10-04T06:17:32.757Z,1.60
2022-10-04T06:20:50.665Z,2.27
2022-10-04T06:23:19.315Z,1.97
2022-10-04T06:26:11.145Z,2.07
2022-10-04T06:28:43.708Z,1.77
2022-10-04T06:31:25.863Z,2.80
2022-10-04T06:34:14.899Z,1.93
2022-10-04T06:36:53.757Z,1.90
2022-10-04T06:39:55.075Z,2.10
2022-10-04T06:42:44.711Z,4.50
2022-10-04T06:45:30.846Z,2.67
2022-10-04T06:48:09.919Z,2.13
2022-10-04T06:50:52.977Z,2.00
2022-10-04T06:53:44.465Z,3.13
2022-10-04T06:56:30.302Z,2.30
2022-10-04T06:59:31.729Z,2.63
2022-10-04T07:02:22.351Z,2.30
2022-10-04T07:05:15.830Z,1.93
2022-10-04T07:07:47.711Z,2.03
2022-10-04T07:10:39.050Z,2.27
2022-10-04T07:13:09.721Z,2.17
2022-10-04T07:15:45.387Z,2.10
2022-10-04T07:18:22.279Z,2.00
2022-10-04T07:20:51.710Z,2.60
2022-10-04T07:23:31.729Z,2.57
2022-10-04T07:26:04.400Z,2.90
2022-10-04T07:28:58.040Z,2.30
2022-10-04T07:31:29.322Z,2.10
2022-10-04T07:34:15.825Z,2.77
2022-10-04T07:36:50.562Z,2.53
2022-10-04T07:39:25.563Z,2.40
2022-10-04T07:41:56.414Z,2.50
2022-10-04T07:44:34.274Z,3.03
2022-10-04T07:47:12.980Z,2.37
2022-10-04T07:49:42.810Z,3.40
2022-10-04T07:52:43.925Z,3.87
2022-10-04T07:55:24.003Z,4.50
2022-10-04T07:57:57.147Z,3.63
2022-10-04T08:00:55.128Z,5.20
2022-10-04T08:03:31.237Z,3.77
2022-10-04T08:06:12.163Z,4.13
2022-10-04T08:09:14.717Z,3.53
2022-10-04T08:12:02.958Z,4.20
2022-10-04T08:14:53.931Z,4.10
2022-10-04T08:17:33.505Z,4.10
2022-10-04T08:20:12.257Z,4.37
2022-10-04T08:22:47.843Z,3.93
2022-10-04T08:25:33.873Z,5.00
2022-10-04T08:28:57.331Z,6.00
2022-10-04T08:31:27.254Z,4.97
2022-10-04T08:34:23.865Z,4.03
2022-10-04T08:37:28.019Z,4.80
2022-10-04T08:40:13.665Z,4.13
2022-10-04T08:42:56.402Z,3.60
2022-10-04T08:45:32.659Z,4.00
2022-10-04T08:48:36.305Z,4.47
2022-10-04T08:51:34.008Z,3.90
2022-10-04T08:54:06.835Z,3.80
2022-10-04T08:56:58.502Z,3.90
2022-10-04T08:59:46.710Z,4.43
2022-10-04T09:02:28.930Z,5.10
2022-10-04T09:05:14.997Z,4.27
2022-10-04T09:08:00.198Z,4.27
2022-10-04T09:10:27.204Z,4.20
2022-10-04T09:13:22.370Z,5.00
2022-10-04T09:15:59.804Z,4.50
2022-10-04T09:18:48.274Z,4.07
2022-10-04T09:21:41.042Z,4.80
2022-10-04T09:24:26.396Z,4.30
2022-10-04T09:27:53.700Z,4.87
2022-10-04T09:30:21.354Z,6.83
2022-10-04T09:33:00.302Z,4.70
2022-10-04T09:35:40.585Z,5.37
2022-10-04T09:38:40.295Z,6.10
2022-10-04T09:41:40.818Z,4.80
2022-10-04T09:44:46.692Z,5.13
2022-10-04T09:47:51.501Z,5.43
2022-10-04T09:50:26.630Z,5.00
2022-10-04T09:53:16.606Z,3.80
2022-10-04T09:56:23.113Z,5.07
2022-10-04T09:59:02.226Z,5.33
2022-10-04T10:02:00.278Z,6.00
2022-10-04T10:05:02.347Z,4.90
2022-10-04T10:07:48.310Z,5.97
2022-10-04T10:10:52.750Z,6.10
2022-10-04T10:13:42.916Z,5.90
2022-10-04T10:16:16.000Z,5.37
2022-10-04T10:19:28.465Z,5.93
2022-10-04T10:22:16.814Z,5.90
2022-10-04T10:25:05.683Z,5.83
2022-10-04T10:27:52.515Z,5.43
2022-10-04T10:30:40.464Z,5.50
2022-10-04T10:33:51.540Z,6.30
2022-10-04T10:36:49.563Z,5.90
2022-10-04T10:39:34.365Z,5.33
2022-10-04T10:42:27.733Z,6.93
2022-10-04T10:45:32.134Z,6.10
2022-10-04T10:48:29.138Z,6.30
2022-10-04T10:51:23.300Z,6.20
2022-10-04T10:54:23.120Z,6.80
2022-10-04T10:56:58.223Z,5.67
2022-10-04T10:59:31.017Z,6.30
2022-10-04T11:02:48.643Z,4.77
2022-10-04T11:05:48.788Z,4.97
2022-10-04T11:08:15.880Z,4.60
2022-10-04T11:11:21.326Z,4.83
2022-10-04T11:14:12.643Z,5.10
2022-10-04T11:16:58.443Z,3.43
2022-10-04T11:19:31.434Z,4.00
2022-10-04T11:22:19.789Z,3.30
2022-10-04T11:24:46.848Z,3.50
2022-10-04T11:27:28.649Z,3.97
2022-10-04T11:30:27.199Z,3.27
2022-10-04T11:33:03.744Z,2.60
2022-10-04T11:35:46.118Z,3.33
2022-10-04T11:38:48.624Z,4.17
2022-10-04T11:41:18.860Z,3.60
2022-10-04T11:43:46.666Z,3.70
2022-10-04T11:46:33.791Z,3.63
2022-10-04T11:49:14.651Z,3.20
2022-10-04T11:52:16.975Z,3.00
2022-10-04T11:54:50.032Z,3.17
2022-10-04T11:57:40.071Z,2.50
2022-10-04T12:00:21.152Z,2.57
2022-10-04T12:03:02.913Z,3.07
2022-10-04T12:05:58.827Z,2.10
2022-10-04T12:08:34.785Z,3.17
2022-10-04T12:11:04.839Z,2.50
2022-10-04T12:13:48.214Z,2.80
2022-10-04T12:16:35.637Z,3.00
2022-10-04T12:19:15.610Z,3.33
2022-10-04T12:21:59.170Z,3.40
2022-10-04T12:24:48.429Z,2.60
2022-10-04T12:27:46.412Z,3.10
2022-10-04T12:30:52.256Z,2.90
2022-10-04T12:33:42.799Z,2.50
2022-10-04T12:36:41.944Z,2.90
2022-10-04T12:39:14.840Z,3.07
2022-10-04T12:42:07.242Z,3.23
2022-10-04T12:44:58.061Z,3.10
2022-10-04T12:47:50.640Z,3.13
2022-10-04T12:50:43.028Z,2.37
2022-10-04T12:53:19.015Z,2.33
2022-10-04T12:55:53.114Z,2.63
2022-10-04T12:58:57.624Z,3.30
2022-10-04T13:01:33.427Z,2.53
2022-10-04T13:04:25.116Z,3.47
2022-10-04T13:07:11.250Z,2.33
2022-10-04T13:10:22.375Z,2.47
2022-10-04T13:13:12.404Z,2.43
2022-10-04T13:19:20.917Z,2.13
2022-10-04T13:22:37.566Z,2.40
2022-10-04T13:25:17.915Z,2.90
2022-10-04T13:27:54.254Z,3.47
2022-10-04T13:30:29.806Z,2.00
2022-10-04T13:33:15.453Z,2.40
2022-10-04T13:35:54.960Z,2.23
2022-10-04T13:38:40.789Z,2.80
2022-10-04T13:41:19.798Z,3.00
2022-10-04T13:43:58.175Z,2.30
2022-10-04T13:46:52.351Z,2.67
2022-10-04T13:49:42.714Z,2.70
2022-10-04T13:52:34.348Z,2.37
2022-10-04T13:55:40.278Z,2.83
2022-10-04T13:58:16.517Z,2.40
2022-10-04T14:01:28.437Z,2.20
2022-10-04T14:03:58.362Z,3.07
2022-10-04T14:06:53.184Z,2.83
2022-10-04T14:09:44.758Z,2.13
2022-10-04T14:12:32.503Z,2.50
2022-10-04T14:15:23.401Z,3.23
2022-10-04T14:18:07.011Z,2.90
2022-10-04T14:21:18.955Z,1.60
2022-10-04T14:24:08.129Z,2.37
2022-10-04T14:26:54.752Z,2.90
2022-10-04T14:29:54.769Z,2.23
2022-10-04T14:32:40.312Z,2.57
2022-10-04T14:35:19.466Z,2.40
2022-10-04T14:38:24.499Z,2.40
2022-10-04T14:41:15.685Z,2.17
2022-10-04T14:44:23.555Z,2.93
2022-10-04T14:46:58.127Z,2.53
2022-10-04T14:49:51.812Z,1.93
2022-10-04T14:52:28.159Z,2.00
2022-10-04T14:55:10.701Z,2.10
2022-10-04T14:57:50.279Z,3.30
2022-10-04T15:00:29.938Z,2.50
2022-10-04T15:03:28.971Z,2.63
2022-10-04T15:06:12.660Z,2.90
2022-10-04T15:09:03.498Z,2.17
2022-10-04T15:12:25.482Z,2.53
2022-10-04T15:15:14.513Z,2.20
2022-10-04T15:18:00.087Z,2.30
2022-10-04T15:20:47.582Z,3.07
2022-10-04T15:23:40.563Z,2.70
2022-10-04T15:26:19.564Z,2.37
2022-10-04T15:28:49.635Z,2.37
2022-10-04T15:31:45.063Z,2.77
2022-10-04T15:34:14.895Z,2.97
2022-10-04T15:36:48.400Z,2.97
2022-10-04T15:39:29.063Z,16.77
2022-10-04T15:42:22.189Z,13.57
2022-10-04T15:45:31.082Z,10.47
2022-10-04T15:47:58.144Z,9.80
2022-10-04T15:50:43.440Z,11.10
2022-10-04T15:53:37.454Z,9.27
2022-10-04T15:56:13.399Z,6.90
2022-10-04T15:58:53.187Z,7.73
2022-10-04T16:01:30.245Z,7.60
2022-10-04T16:04:18.811Z,7.50
2022-10-04T16:06:52.052Z,6.70
2022-10-04T16:09:40.562Z,6.23
2022-10-04T16:12:23.043Z,5.70
2022-10-04T16:15:01.259Z,5.90
2022-10-04T16:17:44.387Z,4.40
2022-10-04T16:20:35.688Z,5.27
2022-10-04T16:23:24.320Z,4.10
2022-10-04T16:25:55.665Z,4.90
2022-10-04T16:28:44.920Z,5.50
2022-10-04T16:31:23.356Z,4.40
2022-10-04T16:34:09.437Z,4.33
2022-10-04T16:37:24.150Z,4.37
2022-10-04T16:40:03.523Z,4.23
2022-10-04T16:42:45.581Z,3.60
2022-10-04T16:45:24.438Z,4.33
2022-10-04T16:47:56.623Z,4.17
2022-10-04T16:51:02.683Z,3.53
2022-10-04T16:53:53.313Z,2.90
2022-10-04T16:56:33.027Z,3.63
2022-10-04T16:59:05.414Z,3.30
2022-10-04T17:01:57.593Z,3.30
2022-10-04T17:04:37.116Z,3.20
2022-10-04T17:07:21.383Z,2.60
2022-10-04T17:10:45.359Z,3.10
2022-10-04T17:13:52.985Z,2.73
2022-10-04T17:16:39.434Z,3.13
2022-10-04T17:19:18.061Z,2.90
2022-10-04T17:22:04.288Z,2.70
2022-10-04T17:24:31.307Z,3.70
2022-10-04T17:27:35.891Z,3.77
2022-10-04T17:30:18.995Z,3.47
2022-10-04T17:33:07.667Z,3.13
2022-10-04T17:36:03.763Z,3.10
2022-10-04T17:39:03.174Z,3.13
2022-10-04T17:42:06.813Z,2.60
2022-10-04T17:44:52.561Z,4.53
2022-10-04T17:48:07.953Z,4.20
2022-10-04T17:51:19.217Z,3.30
2022-10-04T17:54:13.081Z,2.90
2022-10-04T17:57:11.549Z,3.23
2022-10-04T17:59:49.925Z,3.23
2022-10-04T18:02:17.454Z,3.27
2022-10-04T18:05:01.557Z,2.87
2022-10-04T18:07:38.025Z,3.20
2022-10-04T18:10:27.499Z,3.43
2022-10-04T18:13:23.619Z,3.33
2022-10-04T18:16:10.611Z,3.27
2022-10-04T18:18:41.294Z,4.23
2022-10-04T18:21:24.447Z,3.50
2022-10-04T18:23:53.829Z,3.93
2022-10-04T18:26:22.357Z,3.93
2022-10-04T18:28:53.897Z,3.97
2022-10-04T18:31:29.619Z,4.57
2022-10-04T18:34:11.344Z,3.20
2022-10-04T18:36:53.708Z,3.60
2022-10-04T18:39:23.075Z,3.93
2022-10-04T18:42:07.448Z,4.80
2022-10-04T18:44:57.314Z,3.80
2022-10-04T18:47:35.435Z,5.00
2022-10-04T18:50:14.964Z,5.07
2022-10-04T18:53:03.613Z,4.10
2022-10-04T18:56:05.053Z,3.80
2022-10-04T18:59:16.616Z,3.20
2022-10-04T19:02:01.283Z,3.17
2022-10-04T19:04:56.304Z,3.50
2022-10-04T19:07:32.557Z,2.77
2022-10-04T19:10:03.532Z,3.90
2022-10-04T19:12:40.182Z,2.97
2022-10-04T19:15:17.846Z,3.27
2022-10-04T19:17:59.977Z,4.23
2022-10-04T19:20:57.446Z,3.93
2022-10-04T19:23:33.374Z,3.17
2022-10-04T19:26:43.405Z,3.63
2022-10-04T19:29:25.117Z,3.77
2022-10-04T19:32:12.521Z,3.53
2022-10-04T19:34:55.189Z,4.00
2022-10-04T19:37:31.309Z,3.43
2022-10-04T19:40:24.275Z,3.43
2022-10-04T19:43:03.718Z,4.20
2022-10-04T19:46:19.203Z,3.47
2022-10-04T19:48:51.309Z,3.20
2022-10-04T19:51:40.169Z,3.80
2022-10-04T19:54:16.198Z,3.77
2022-10-04T19:56:50.425Z,3.67
2022-10-04T19:59:18.764Z,3.67
2022-10-04T20:01:50.097Z,4.47
2022-10-04T20:04:38.002Z,3.60
2022-10-04T20:07:26.675Z,4.60
2022-10-04T20:10:06.981Z,3.20
2022-10-04T20:12:41.735Z,3.33
2022-10-04T20:15:17.232Z,3.90
2022-10-04T20:17:45.795Z,4.57
2022-10-04T20:20:15.746Z,4.13
2022-10-04T20:23:10.006Z,4.70
2022-10-04T20:25:46.150Z,4.00
2022-10-04T20:28:28.879Z,3.17
2022-10-04T20:31:03.645Z,4.00
2022-10-04T20:33:40.087Z,4.07
2022-10-04T20:36:12.242Z,4.27
2022-10-04T20:39:01.102Z,5.37
2022-10-04T20:41:49.510Z,4.60
2022-10-04T20:44:43.262Z,3.63
2022-10-04T20:47:33.679Z,4.30
2022-10-04T20:50:01.871Z,4.27
2022-10-04T20:52:32.126Z,4.40
2022-10-04T20:55:01.713Z,4.00
2022-10-04T20:57:35.231Z,6.40
2022-10-04T21:00:05.834Z,4.90
2022-10-04T21:02:33.205Z,5.57
2022-10-04T21:05:14.790Z,4.80
2022-10-04T21:07:41.999Z,5.20
2022-10-04T21:10:20.176Z,5.50
2022-10-04T21:12:49.423Z,5.00
2022-10-04T21:15:16.453Z,6.03
2022-10-04T21:18:07.303Z,4.70
2022-10-04T21:20:47.425Z,5.70
2022-10-04T21:23:33.583Z,6.40
2022-10-04T21:26:19.527Z,4.67
2022-10-04T21:28:47.375Z,5.00
2022-10-04T21:31:14.569Z,4.90
2022-10-04T21:33:41.672Z,6.20
2022-10-04T21:36:08.879Z,5.77
2022-10-04T21:38:37.592Z,5.20
2022-10-04T21:41:04.942Z,5.80
2022-10-04T21:43:32.331Z,5.80
2022-10-04T21:45:59.444Z,5.20
2022-10-04T21:48:27.609Z,4.20
2022-10-04T21:50:55.158Z,5.87
2022-10-04T21:53:22.843Z,5.70
2022-10-04T21:55:50.045Z,5.77
2022-10-04T21:58:17.301Z,5.90
2022-10-04T22:00:44.398Z,5.50
2022-10-04T22:03:11.486Z,5.10
2022-10-04T22:05:38.635Z,5.50
2022-10-04T22:08:05.765Z,5.70
2022-10-04T22:10:32.953Z,5.20
2022-10-04T22:13:00.081Z,6.27
2022-10-04T22:15:28.616Z,5.67
2022-10-04T22:17:55.806Z,5.60
2022-10-04T22:20:24.530Z,6.70
2022-10-04T22:22:52.731Z,6.30
2022-10-04T22:25:22.606Z,6.33
2022-10-04T22:27:50.269Z,6.40
2022-10-04T22:30:22.728Z,6.23
2022-10-04T22:33:20.454Z,6.80
2022-10-04T22:35:47.667Z,6.17
2022-10-04T22:38:14.805Z,6.87
2022-10-04T22:40:41.932Z,6.23
2022-10-04T22:43:14.446Z,6.00
2022-10-04T22:45:43.483Z,5.93
2022-10-04T22:48:15.356Z,6.47
2022-10-04T22:50:43.045Z,6.33
2022-10-04T22:53:22.440Z,6.93
2022-10-04T22:55:50.840Z,5.97
2022-10-04T22:58:18.584Z,7.47
2022-10-04T23:00:45.741Z,7.00
2022-10-04T23:03:21.618Z,7.67
2022-10-04T23:05:48.765Z,6.00
2022-10-04T23:08:17.901Z,6.30
2022-10-04T23:10:46.031Z,7.73
2022-10-04T23:13:13.054Z,6.30
2022-10-04T23:15:40.260Z,7.47
2022-10-04T23:18:17.879Z,6.27
2022-10-04T23:20:49.089Z,6.83
2022-10-04T23:23:18.513Z,7.37
2022-10-04T23:25:47.156Z,7.13
2022-10-04T23:28:17.536Z,7.40
2022-10-04T23:30:48.292Z,7.40
2022-10-04T23:33:21.338Z,7.93
2022-10-04T23:35:49.447Z,7.77
2022-10-04T23:38:20.288Z,7.70
2022-10-04T23:40:47.520Z,7.60
2022-10-04T23:43:22.093Z,7.90
2022-10-04T23:45:49.275Z,8.13
2022-10-04T23:48:24.286Z,7.67
2022-10-04T23:50:54.301Z,7.73
2022-10-04T23:53:27.527Z,8.20
2022-10-04T23:55:56.317Z,6.43
2022-10-04T23:58:26.318Z,8.20
